Aérodrome :
LOGIN :

S'inscrire | Disclaimer

   EN    FR    IT 

 










Légende :    VFR   VFR Marginal   IFR   IFR Intensif   IFR Très Intensif
Visi : 
Plafond : 
>= 8 km
>= 3000ft
5 à 8 km
1000 à 3000 ft
1500m à 5 km
500 à 1000 ft
800 à 1500m
200 à 500 ft
< 800m
< 200 ft
Symboles :   Orages  Brouillard  Fortes neiges  Fortes précipitations  Vent > 20 kt
SIGMETs :   Divers  Orages  Givrage  Turbulence  Onde Orograph.  Cendres Volcan.






- Altitude de l'aérodrome : 408 ft
- Code IATA : FKB


EDSB - Karlsruhe Baden Baden

DERNIER METAR :
  • 200250Z 07001KT 0200 R21/0400D FG VV/// 02/01 Q1018

METARs EXPIRÉS :
  • 200220Z AUTO VRB01KT 0250 0200 R21/0375N VV001 02/02 Q1018
  • 200150Z AUTO 21001KT 0300 R21///// VV001 01/01 Q1018
  • 200120Z AUTO VRB01KT 0250 R21///// VV001 01/00 Q1018
  • 200050Z AUTO VRB01KT 0900 R21///// VV002 01/01 Q1018
  • 200020Z AUTO 17002KT 6000 0450 R21/P2000N FEW002/// SCT006/// 03/02 Q1018
  • 192350Z AUTO 08002KT 4900 1500 VV004 02/01 Q1018

TAF TAF EDSB
Valide du 20 à 00h jusqu'au 21 à 00h UTC


192300Z 2000/2024 VRB03KT 1200 BCFG FEW002
TEMPO 2000/2007 0250 FG VV000
BECMG 2007/2009 9999
TEMPO 2007/2009 BKN008
BECMG 2010/2012 01005KT
BECMG 2017/2019 VRB03KT



MET'MAP, la Météo Aéronautique d'un coup d'oeil ! - Copyright ORBIFLY Décembre 2007 - Disclaimer

ORBIFLY MET'MAP TEAM :

Programmation & Développement : Alexandra Zaïnal
Sur une idée originale de : Baudouin d'Aumeries
Assistance à la programmation : Marc-Olivier Méhu
Soutien technique & logistique : Manuel Goepfert

Contact : metmap@orbifly.com




SOURCES & CREDITS :

   NOAA